Aviation Digital Data Service (ADDS)

Output produced by METARs form (0235 UTC 24 August 2016)
found at http://www.aviationweather.gov/adds/metars/
 
KIPT 240154Z 00000KT 10SM CLR 19/16 A3026 RMK AO2 SLP243 T01940161
KIPT 240054Z 00000KT 10SM CLR 20/16 A3024 RMK AO2 SLP241 T02000161
KIPT 232354Z 00000KT 10SM CLR 23/15 A3023 RMK AO2 SLP234 T02330150 10272 20233 55005
KIPT 232254Z 17004KT 10SM CLR 26/14 A3022 RMK AO2 SLP232 T02610144
KIPT 232154Z 17004KT 10SM CLR 27/14 A3024 RMK AO2 SLP237 T02670139
KIPT 232054Z 16004KT 10SM CLR 27/14 A3025 RMK AO2 SLP240 T02720139 56015
KIPT 231954Z 13005KT 10SM CLR 27/14 A3026 RMK AO2 SLP244 T02670144
KIPT 231854Z VRB03KT 10SM CLR 26/14 A3027 RMK AO2 SLP249 T02610139
KIPT 231754Z 15007KT 10SM CLR 26/14 A3029 RMK AO2 SLP255 T02560139 10256 20133 56017
KIPT 231654Z 00000KT 10SM FEW035 25/13 A3031 RMK AO2 SLP260 T02500128
KIPT 231554Z 00000KT 10SM FEW035 22/13 A3032 RMK AO2 SLP264 T02220133
KIPT 231454Z VRB03KT 10SM CLR 20/13 A3034 RMK AO2 SLP273 T02000128 58002
KIPT 231354Z 27003KT 10SM CLR 17/12 A3035 RMK AO2 SLP275 T01720122
KIPT 231254Z 22003KT 10SM FEW005 14/12 A3035 RMK AO2 SLP278 T01440117
KIPT 231216Z 23006KT 10SM SCT005 14/12 A3035 RMK AO2 T01390117
KIPT 231154Z 27004KT 10SM BKN005 13/11 A3035 RMK AO2 SLP275 T01330111 10133 20117 51014
KIPT 231127Z 32003KT 10SM BKN005 13/11 A3034 RMK AO2 T01280106
KIPT 231054Z 34003KT 10SM BKN006 12/11 A3033 RMK AO2 SLP269 T01220106
KIPT 230954Z AUTO 00000KT 10SM FEW006 12/10 A3032 RMK AO2 SLP265 T01170100
KIPT 230854Z AUTO 00000KT 10SM CLR 12/11 A3030 RMK AO2 SLP259 T01220106 51017
KIPT 230754Z AUTO 34003KT 10SM CLR 12/11 A3029 RMK AO2 SLP254 T01220106
KIPT 230654Z AUTO 33003KT 10SM CLR 13/11 A3027 RMK AO2 SLP249 T01280106
KIPT 230554Z AUTO 00000KT 10SM CLR 13/11 A3025 RMK AO2 SLP242 T01330111 10200 20133 51010
KIPT 230454Z AUTO 32003KT 10SM CLR 13/11 A3024 RMK AO2 SLP239 T01330111 402560133
KIPT 230354Z AUTO 00000KT 10SM CLR 14/12 A3023 RMK AO2 SLP235 T01390117
KIPT 230254Z AUTO 00000KT 10SM CLR 16/12 A3022 RMK AO2 SLP231 T01560117 51024
KIPT 230154Z 00000KT 10SM CLR 16/12 A3020 RMK AO2 SLP225 T01610122
KIPT 230054Z 00000KT 10SM CLR 18/12 A3017 RMK AO2 SLP215 T01830122
KIPT 222354Z 00000KT 10SM CLR 20/13 A3015 RMK AO2 SLP206 T02000128 10256 20200 53010
KIPT 222254Z 34005KT 10SM CLR 24/08 A3013 RMK AO2 SLP201 T02390083
KIPT 222154Z 02006KT 10SM FEW070 24/08 A3012 RMK AO2 SLP199 T02440083
KIPT 222054Z 36009KT 10SM FEW070 25/08 A3012 RMK AO2 SLP196 T02500078 51002
KIPT 221954Z 34010KT 10SM SCT070 26/08 A3011 RMK AO2 SLP194 T02560083
KIPT 221854Z 36011G14KT 10SM SCT060 25/09 A3012 RMK AO2 SLP196 T02500089
KIPT 221754Z 32011G17KT 10SM SCT070 24/09 A3011 RMK AO2 SLP193 T02440094 10256 20189 50006
KIPT 221654Z 33010KT 10SM BKN065 24/11 A3011 RMK AO2 SLP194 T02440111
KIPT 221554Z 33010KT 10SM FEW049 SCT065 24/11 A3010 RMK AO2 SLP191 T02390111
KIPT 221454Z 33008KT 10SM BKN047 23/12 A3009 RMK AO2 SLP188 T02330117 51021